EST,Max TemperatureF,Mean TemperatureF,Min TemperatureF,Max Dew PointF,MeanDew PointF,Min DewpointF,Max Humidity, Mean Humidity, Min Humidity, Max Sea Level PressureIn, Mean Sea Level PressureIn, Min Sea Level PressureIn, Max VisibilityMiles, Mean VisibilityMiles, Min VisibilityMiles, Max Wind SpeedMPH, Mean Wind SpeedMPH, Max Gust SpeedMPH,PrecipitationIn, CloudCover, Events, WindDirDegrees
2012-12-1,52,39,26,45,35,26,100,94,76,30.44,30.38,30.33,10,6,0,8,1,,0.00,1,Fog,32
2012-12-2,62,44,28,54,43,29,100,89,67,30.39,30.25,30.14,10,6,0,10,1,,0.00,5,Fog-Rain,198
2012-12-3,73,57,41,60,51,41,100,89,60,30.26,30.21,30.15,10,7,1,8,1,,0.00,3,Rain,211
2012-12-4,75,58,42,60,52,42,100,81,55,30.24,30.15,30.03,10,9,2,10,2,17,0.00,3,,194
2012-12-5,63,52,38,54,42,30,85,63,40,30.30,30.15,30.01,10,10,10,15,8,22,0.00,2,Rain,326
2012-12-6,46,35,24,34,29,24,100,78,53,30.39,30.30,30.23,10,10,10,8,3,,0.00,1,,60
2012-12-7,55,46,39,49,43,34,100,86,70,30.22,30.09,29.96,10,10,10,12,3,,0.00,7,Rain,185
2012-12-8,66,57,48,57,52,49,100,94,73,30.00,29.93,29.88,10,7,0,7,3,,0.00,5,Fog,189
2012-12-9,54,51,48,55,52,49,100,100,99,30.16,30.08,29.97,10,4,0,8,3,,0.01,8,Fog-Rain,34
2012-12-10,66,58,50,63,58,50,100,96,86,29.96,29.72,29.59,10,7,1,14,4,23,0.00,7,,208
2012-12-11,52,46,36,54,39,33,97,77,60,30.22,29.98,29.67,10,10,7,16,8,24,0.04,6,Rain,357
2012-12-12,46,39,32,35,33,32,100,79,58,30.43,30.36,30.21,10,10,10,9,2,,0.00,2,,8
2012-12-13,50,36,23,32,30,24,100,79,46,30.46,30.40,30.34,10,10,10,8,2,,0.00,0,,15
2012-12-14,57,38,19,36,29,20,100,83,41,30.34,30.28,30.21,10,10,10,6,0,,0.00,0,,208
2012-12-15,59,42,27,43,33,28,100,78,39,30.30,30.21,30.11,10,10,5,8,1,,0.04,1,Rain,151
2012-12-16,50,46,42,48,46,43,100,98,91,30.13,29.96,29.84,10,8,2,7,2,,0.14,7,Rain,167
2012-12-17,53,50,46,54,49,47,100,100,100,29.85,29.75,29.55,7,2,0,8,2,,0.01,8,Fog-Rain,37
2012-12-18,63,48,33,54,45,33,100,84,52,29.81,29.64,29.54,10,6,0,17,5,24,0.00,5,Fog,258
2012-12-19,59,42,27,44,36,27,100,84,57,30.17,29.96,29.80,10,10,10,12,2,,0.00,1,,59
2012-12-20,57,40,31,52,39,32,100,90,66,30.20,29.99,29.40,10,9,4,16,3,23,0.33,3,Rain,128
2012-12-21,57,46,36,58,35,27,100,72,55,29.59,29.44,29.31,10,10,3,18,8,25,0.13,7,Rain,262
2012-12-22,48,36,25,29,27,24,95,61,45,30.04,29.85,29.59,10,10,10,26,12,39,0.00,2,,304
2012-12-23,50,35,20,30,26,20,100,83,39,30.06,29.99,29.90,10,10,10,10,1,,0.00,0,,196
2012-12-24,37,30,23,37,32,23,100,99,84,30.08,29.98,29.89,10,6,1,5,0,,0.08,5,Rain-Snow,29
2012-12-25,49,40,32,46,37,32,100,91,70,30.23,30.09,29.90,10,5,0,10,2,16,0.00,7,Fog,15
2012-12-26,41,37,33,38,36,32,100,96,81,30.22,29.82,29.44,10,6,1,15,7,23,0.72,8,Rain-Snow-Thunderstorm,16
2012-12-27,45,38,31,37,33,29,100,82,61,30.04,29.78,29.45,10,10,10,21,10,29,0.01,5,Rain,304
2012-12-28,46,38,30,34,32,29,99,82,62,30.14,30.07,30.02,10,10,10,10,4,,0.00,0,,312
2012-12-29,44,39,34,41,36,32,100,91,70,30.01,29.77,29.57,10,9,1,17,2,22,0.01,7,Rain-Snow,281
2012-12-30,44,33,23,32,27,23,100,68,50,30.33,30.15,29.84,10,10,10,29,12,38,0.00,2,,317
2012-12-31,37,28,21,32,28,21,100,91,75,30.33,30.17,30.00,10,10,10,4,0,,0.00,2,,120